sensor_id;sensor_type;location;lat;lon;timestamp;P1;durP1;ratioP1;P2;durP2;ratioP2
49450;SDS011;35336;48.400;10.886;2022-08-21T00:00:13;5.50;;;1.80;;
49450;SDS011;35336;48.400;10.886;2022-08-21T00:00:30;4.00;;;1.75;;
49450;SDS011;35336;48.400;10.886;2022-08-21T00:00:46;1.80;;;1.70;;
49450;SDS011;35336;48.400;10.886;2022-08-21T00:01:04;2.83;;;1.80;;
49450;SDS011;35336;48.400;10.886;2022-08-21T00:01:25;4.25;;;1.92;;
49450;SDS011;35336;48.400;10.886;2022-08-21T00:01:43;3.33;;;2.05;;
49450;SDS011;35336;48.400;10.886;2022-08-21T00:01:58;2.65;;;2.00;;
49450;SDS011;35336;48.400;10.886;2022-08-21T00:02:15;5.10;;;1.90;;
49450;SDS011;35336;48.400;10.886;2022-08-21T00:02:32;4.05;;;1.80;;
49450;SDS011;35336;48.400;10.886;2022-08-21T00:02:49;2.88;;;1.67;;
49450;SDS011;35336;48.400;10.886;2022-08-21T00:03:08;2.60;;;1.70;;
49450;SDS011;35336;48.400;10.886;2022-08-21T00:03:26;2.55;;;1.80;;
49450;SDS011;35336;48.400;10.886;2022-08-21T00:03:41;3.93;;;1.80;;
49450;SDS011;35336;48.400;10.886;2022-08-21T00:03:57;3.53;;;1.90;;
49450;SDS011;35336;48.400;10.886;2022-08-21T00:04:12;3.20;;;2.00;;
49450;SDS011;35336;48.400;10.886;2022-08-21T00:04:28;4.45;;;2.35;;
49450;SDS011;35336;48.400;10.886;2022-08-21T00:04:45;5.72;;;2.35;;
49450;SDS011;35336;48.400;10.886;2022-08-21T00:05:01;4.53;;;2.00;;
49450;SDS011;35336;48.400;10.886;2022-08-21T00:05:18;4.65;;;2.25;;
49450;SDS011;35336;48.400;10.886;2022-08-21T00:05:35;2.72;;;2.20;;
49450;SDS011;35336;48.400;10.886;2022-08-21T00:05:54;2.80;;;2.05;;
49450;SDS011;35336;48.400;10.886;2022-08-21T00:06:09;3.28;;;1.83;;
49450;SDS011;35336;48.400;10.886;2022-08-21T00:06:25;3.58;;;1.90;;
49450;SDS011;35336;48.400;10.886;2022-08-21T00:06:41;2.60;;;2.13;;
49450;SDS011;35336;48.400;10.886;2022-08-21T00:06:56;2.30;;;2.10;;
49450;SDS011;35336;48.400;10.886;2022-08-21T00:07:13;3.00;;;2.00;;
49450;SDS011;35336;48.400;10.886;2022-08-21T00:07:29;3.47;;;1.88;;
49450;SDS011;35336;48.400;10.886;2022-08-21T00:07:45;3.75;;;2.05;;
49450;SDS011;35336;48.400;10.886;2022-08-21T00:08:00;3.25;;;1.83;;
49450;SDS011;35336;48.400;10.886;2022-08-21T00:08:16;4.00;;;1.90;;
49450;SDS011;35336;48.400;10.886;2022-08-21T00:08:33;3.28;;;2.00;;
49450;SDS011;35336;48.400;10.886;2022-08-21T00:08:49;2.13;;;1.87;;
49450;SDS011;35336;48.400;10.886;2022-08-21T00:09:07;3.08;;;2.10;;
49450;SDS011;35336;48.400;10.886;2022-08-21T00:09:23;2.78;;;2.00;;
49450;SDS011;35336;48.400;10.886;2022-08-21T00:09:39;4.28;;;1.92;;
49450;SDS011;35336;48.400;10.886;2022-08-21T00:09:55;4.78;;;2.03;;
49450;SDS011;35336;48.400;10.886;2022-08-21T00:10:11;3.05;;;2.20;;
49450;SDS011;35336;48.400;10.886;2022-08-21T00:10:27;3.25;;;2.38;;
49450;SDS011;35336;48.400;10.886;2022-08-21T00:10:42;3.50;;;2.07;;
49450;SDS011;35336;48.400;10.886;2022-08-21T00:10:59;5.90;;;2.08;;
49450;SDS011;35336;48.400;10.886;2022-08-21T00:11:14;5.00;;;2.07;;
49450;SDS011;35336;48.400;10.886;2022-08-21T00:11:30;5.10;;;2.10;;
49450;SDS011;35336;48.400;10.886;2022-08-21T00:11:46;6.57;;;2.25;;
49450;SDS011;35336;48.400;10.886;2022-08-21T00:12:02;7.17;;;2.50;;
49450;SDS011;35336;48.400;10.886;2022-08-21T00:12:19;6.60;;;2.25;;
49450;SDS011;35336;48.400;10.886;2022-08-21T00:12:34;6.55;;;2.08;;
49450;SDS011;35336;48.400;10.886;2022-08-21T00:12:50;3.37;;;2.03;;
49450;SDS011;35336;48.400;10.886;2022-08-21T00:13:06;3.90;;;2.10;;
49450;SDS011;35336;48.400;10.886;2022-08-21T00:13:22;3.55;;;1.95;;
49450;SDS011;35336;48.400;10.886;2022-08-21T00:13:38;1.98;;;1.75;;
49450;SDS011;35336;48.400;10.886;2022-08-21T00:13:54;2.17;;;1.98;;
49450;SDS011;35336;48.400;10.886;2022-08-21T00:14:10;3.13;;;2.10;;
49450;SDS011;35336;48.400;10.886;2022-08-21T00:14:26;5.28;;;2.20;;
49450;SDS011;35336;48.400;10.886;2022-08-21T00:14:42;4.57;;;2.35;;
49450;SDS011;35336;48.400;10.886;2022-08-21T00:14:57;3.33;;;2.30;;
49450;SDS011;35336;48.400;10.886;2022-08-21T00:15:14;3.67;;;2.33;;
49450;SDS011;35336;48.400;10.886;2022-08-21T00:15:33;4.50;;;2.75;;
49450;SDS011;35336;48.400;10.886;2022-08-21T00:15:50;3.10;;;2.20;;
49450;SDS011;35336;48.400;10.886;2022-08-21T00:16:06;4.57;;;2.37;;
49450;SDS011;35336;48.400;10.886;2022-08-21T00:16:21;4.50;;;2.38;;
49450;SDS011;35336;48.400;10.886;2022-08-21T00:16:37;3.65;;;2.50;;
49450;SDS011;35336;48.400;10.886;2022-08-21T00:16:53;3.58;;;2.60;;
49450;SDS011;35336;48.400;10.886;2022-08-21T00:17:09;3.80;;;2.50;;
49450;SDS011;35336;48.400;10.886;2022-08-21T00:17:24;5.13;;;2.40;;
49450;SDS011;35336;48.400;10.886;2022-08-21T00:17:40;3.43;;;2.30;;
49450;SDS011;35336;48.400;10.886;2022-08-21T00:17:56;2.28;;;2.08;;
49450;SDS011;35336;48.400;10.886;2022-08-21T00:18:11;2.45;;;2.15;;
49450;SDS011;35336;48.400;10.886;2022-08-21T00:18:27;3.23;;;2.10;;
49450;SDS011;35336;48.400;10.886;2022-08-21T00:18:42;3.42;;;2.05;;
49450;SDS011;35336;48.400;10.886;2022-08-21T00:18:58;3.20;;;2.40;;
49450;SDS011;35336;48.400;10.886;2022-08-21T00:19:14;3.25;;;2.47;;
49450;SDS011;35336;48.400;10.886;2022-08-21T00:19:30;5.07;;;2.80;;
49450;SDS011;35336;48.400;10.886;2022-08-21T00:19:46;3.90;;;2.45;;
49450;SDS011;35336;48.400;10.886;2022-08-21T00:20:04;3.23;;;2.40;;
49450;SDS011;35336;48.400;10.886;2022-08-21T00:20:23;6.95;;;2.60;;
49450;SDS011;35336;48.400;10.886;2022-08-21T00:20:39;7.72;;;2.42;;
49450;SDS011;35336;48.400;10.886;2022-08-21T00:20:55;4.80;;;2.30;;
49450;SDS011;35336;48.400;10.886;2022-08-21T00:21:12;3.50;;;2.30;;
49450;SDS011;35336;48.400;10.886;2022-08-21T00:21:28;3.35;;;2.60;;
49450;SDS011;35336;48.400;10.886;2022-08-21T00:21:43;3.38;;;2.60;;
49450;SDS011;35336;48.400;10.886;2022-08-21T00:21:59;2.80;;;2.37;;
49450;SDS011;35336;48.400;10.886;2022-08-21T00:22:15;3.88;;;2.28;;
49450;SDS011;35336;48.400;10.886;2022-08-21T00:22:30;5.50;;;2.00;;
49450;SDS011;35336;48.400;10.886;2022-08-21T00:22:46;4.23;;;2.17;;
49450;SDS011;35336;48.400;10.886;2022-08-21T00:23:02;2.55;;;2.35;;
49450;SDS011;35336;48.400;10.886;2022-08-21T00:23:18;2.63;;;2.40;;
49450;SDS011;35336;48.400;10.886;2022-08-21T00:23:34;4.90;;;2.60;;
49450;SDS011;35336;48.400;10.886;2022-08-21T00:23:50;5.30;;;2.45;;
49450;SDS011;35336;48.400;10.886;2022-08-21T00:24:06;4.55;;;2.30;;
49450;SDS011;35336;48.400;10.886;2022-08-21T00:24:22;5.93;;;2.40;;
49450;SDS011;35336;48.400;10.886;2022-08-21T00:24:39;3.25;;;2.38;;
49450;SDS011;35336;48.400;10.886;2022-08-21T00:24:54;2.50;;;2.30;;
49450;SDS011;35336;48.400;10.886;2022-08-21T00:25:10;2.90;;;2.33;;
49450;SDS011;35336;48.400;10.886;2022-08-21T00:25:26;3.53;;;2.10;;
49450;SDS011;35336;48.400;10.886;2022-08-21T00:25:42;2.72;;;1.80;;
49450;SDS011;35336;48.400;10.886;2022-08-21T00:25:59;2.50;;;1.98;;
49450;SDS011;35336;48.400;10.886;2022-08-21T00:26:14;4.05;;;2.30;;
49450;SDS011;35336;48.400;10.886;2022-08-21T00:26:29;3.73;;;2.20;;
49450;SDS011;35336;48.400;10.886;2022-08-21T00:26:45;3.83;;;2.00;;
49450;SDS011;35336;48.400;10.886;2022-08-21T00:27:01;3.60;;;2.05;;
49450;SDS011;35336;48.400;10.886;2022-08-21T00:27:17;4.33;;;2.10;;
49450;SDS011;35336;48.400;10.886;2022-08-21T00:27:32;4.80;;;2.20;;
49450;SDS011;35336;48.400;10.886;2022-08-21T00:27:48;3.40;;;2.10;;
49450;SDS011;35336;48.400;10.886;2022-08-21T00:28:04;2.40;;;2.20;;
49450;SDS011;35336;48.400;10.886;2022-08-21T00:28:21;2.50;;;2.30;;
49450;SDS011;35336;48.400;10.886;2022-08-21T00:28:37;2.70;;;2.30;;
49450;SDS011;35336;48.400;10.886;2022-08-21T00:28:52;2.87;;;2.27;;
49450;SDS011;35336;48.400;10.886;2022-08-21T00:29:08;3.30;;;2.10;;
49450;SDS011;35336;48.400;10.886;2022-08-21T00:29:23;2.80;;;1.93;;
49450;SDS011;35336;48.400;10.886;2022-08-21T00:29:39;2.22;;;2.03;;
49450;SDS011;35336;48.400;10.886;2022-08-21T00:29:54;3.55;;;1.95;;
49450;SDS011;35336;48.400;10.886;2022-08-21T00:30:11;2.92;;;1.80;;
49450;SDS011;35336;48.400;10.886;2022-08-21T00:30:29;2.10;;;1.90;;
49450;SDS011;35336;48.400;10.886;2022-08-21T00:30:45;2.55;;;2.00;;
49450;SDS011;35336;48.400;10.886;2022-08-21T00:31:00;2.40;;;2.20;;
49450;SDS011;35336;48.400;10.886;2022-08-21T00:31:18;2.53;;;2.03;;
49450;SDS011;35336;48.400;10.886;2022-08-21T00:31:34;2.70;;;1.80;;
49450;SDS011;35336;48.400;10.886;2022-08-21T00:31:50;3.47;;;2.10;;
49450;SDS011;35336;48.400;10.886;2022-08-21T00:32:05;3.20;;;2.30;;
49450;SDS011;35336;48.400;10.886;2022-08-21T00:32:21;4.03;;;2.30;;
49450;SDS011;35336;48.400;10.886;2022-08-21T00:32:39;5.07;;;2.20;;
49450;SDS011;35336;48.400;10.886;2022-08-21T00:32:55;3.80;;;2.00;;
49450;SDS011;35336;48.400;10.886;2022-08-21T00:33:12;3.63;;;2.15;;
49450;SDS011;35336;48.400;10.886;2022-08-21T00:33:28;3.30;;;2.15;;
49450;SDS011;35336;48.400;10.886;2022-08-21T00:33:43;2.33;;;2.00;;
49450;SDS011;35336;48.400;10.886;2022-08-21T00:34:00;2.30;;;2.10;;
49450;SDS011;35336;48.400;10.886;2022-08-21T00:34:15;3.85;;;1.98;;
49450;SDS011;35336;48.400;10.886;2022-08-21T00:34:31;3.27;;;1.90;;
49450;SDS011;35336;48.400;10.886;2022-08-21T00:34:46;2.47;;;2.13;;
49450;SDS011;35336;48.400;10.886;2022-08-21T00:35:02;3.78;;;2.13;;
49450;SDS011;35336;48.400;10.886;2022-08-21T00:35:20;3.30;;;1.85;;
49450;SDS011;35336;48.400;10.886;2022-08-21T00:35:39;2.65;;;1.80;;
49450;SDS011;35336;48.400;10.886;2022-08-21T00:35:56;3.92;;;1.95;;
49450;SDS011;35336;48.400;10.886;2022-08-21T00:36:12;4.32;;;1.90;;
49450;SDS011;35336;48.400;10.886;2022-08-21T00:36:29;6.18;;;2.00;;
49450;SDS011;35336;48.400;10.886;2022-08-21T00:36:44;6.13;;;2.50;;
49450;SDS011;35336;48.400;10.886;2022-08-21T00:37:00;4.37;;;2.43;;
49450;SDS011;35336;48.400;10.886;2022-08-21T00:37:15;4.05;;;1.90;;
49450;SDS011;35336;48.400;10.886;2022-08-21T00:37:31;3.60;;;1.97;;
49450;SDS011;35336;48.400;10.886;2022-08-21T00:37:46;2.38;;;2.10;;
49450;SDS011;35336;48.400;10.886;2022-08-21T00:38:03;2.17;;;1.97;;
49450;SDS011;35336;48.400;10.886;2022-08-21T00:38:19;2.25;;;1.83;;
49450;SDS011;35336;48.400;10.886;2022-08-21T00:38:35;4.60;;;2.20;;
49450;SDS011;35336;48.400;10.886;2022-08-21T00:38:50;3.75;;;2.28;;
49450;SDS011;35336;48.400;10.886;2022-08-21T00:39:06;2.67;;;2.10;;
49450;SDS011;35336;48.400;10.886;2022-08-21T00:39:22;2.75;;;2.05;;
49450;SDS011;35336;48.400;10.886;2022-08-21T00:39:38;2.50;;;2.20;;
49450;SDS011;35336;48.400;10.886;2022-08-21T00:39:53;2.88;;;2.15;;
49450;SDS011;35336;48.400;10.886;2022-08-21T00:40:11;2.67;;;2.08;;
49450;SDS011;35336;48.400;10.886;2022-08-21T00:40:34;3.03;;;2.22;;
49450;SDS011;35336;48.400;10.886;2022-08-21T00:40:56;3.38;;;2.25;;
49450;SDS011;35336;48.400;10.886;2022-08-21T00:41:14;3.00;;;1.85;;
49450;SDS011;35336;48.400;10.886;2022-08-21T00:41:29;3.17;;;1.95;;
49450;SDS011;35336;48.400;10.886;2022-08-21T00:41:45;3.25;;;2.05;;
49450;SDS011;35336;48.400;10.886;2022-08-21T00:42:01;4.43;;;2.90;;
49450;SDS011;35336;48.400;10.886;2022-08-21T00:42:16;4.30;;;2.83;;
49450;SDS011;35336;48.400;10.886;2022-08-21T00:42:32;2.67;;;1.90;;
49450;SDS011;35336;48.400;10.886;2022-08-21T00:42:48;2.20;;;2.00;;
49450;SDS011;35336;48.400;10.886;2022-08-21T00:43:06;2.20;;;2.00;;
49450;SDS011;35336;48.400;10.886;2022-08-21T00:43:26;4.95;;;2.22;;
49450;SDS011;35336;48.400;10.886;2022-08-21T00:43:43;4.30;;;2.22;;
49450;SDS011;35336;48.400;10.886;2022-08-21T00:43:58;2.17;;;1.97;;
49450;SDS011;35336;48.400;10.886;2022-08-21T00:44:14;2.83;;;1.90;;
49450;SDS011;35336;48.400;10.886;2022-08-21T00:44:30;3.15;;;1.90;;
49450;SDS011;35336;48.400;10.886;2022-08-21T00:44:46;2.35;;;1.90;;
49450;SDS011;35336;48.400;10.886;2022-08-21T00:45:08;3.10;;;2.13;;
49450;SDS011;35336;48.400;10.886;2022-08-21T00:45:25;3.42;;;2.03;;
49450;SDS011;35336;48.400;10.886;2022-08-21T00:45:42;5.47;;;1.98;;
49450;SDS011;35336;48.400;10.886;2022-08-21T00:45:59;5.28;;;1.90;;
49450;SDS011;35336;48.400;10.886;2022-08-21T00:46:15;3.42;;;1.85;;
49450;SDS011;35336;48.400;10.886;2022-08-21T00:46:30;4.95;;;2.10;;
49450;SDS011;35336;48.400;10.886;2022-08-21T00:46:46;5.65;;;2.17;;
49450;SDS011;35336;48.400;10.886;2022-08-21T00:47:01;5.13;;;1.87;;
49450;SDS011;35336;48.400;10.886;2022-08-21T00:47:17;4.97;;;1.80;;
49450;SDS011;35336;48.400;10.886;2022-08-21T00:47:34;3.22;;;1.80;;
49450;SDS011;35336;48.400;10.886;2022-08-21T00:47:50;3.80;;;2.13;;
49450;SDS011;35336;48.400;10.886;2022-08-21T00:48:06;2.80;;;2.20;;
49450;SDS011;35336;48.400;10.886;2022-08-21T00:48:22;2.33;;;1.98;;
49450;SDS011;35336;48.400;10.886;2022-08-21T00:48:39;2.90;;;2.10;;
49450;SDS011;35336;48.400;10.886;2022-08-21T00:48:54;3.13;;;2.22;;
49450;SDS011;35336;48.400;10.886;2022-08-21T00:49:11;2.17;;;1.98;;
49450;SDS011;35336;48.400;10.886;2022-08-21T00:49:27;2.03;;;1.85;;
49450;SDS011;35336;48.400;10.886;2022-08-21T00:49:42;2.30;;;1.90;;
49450;SDS011;35336;48.400;10.886;2022-08-21T00:49:58;2.38;;;2.00;;
49450;SDS011;35336;48.400;10.886;2022-08-21T00:50:13;3.23;;;1.83;;
49450;SDS011;35336;48.400;10.886;2022-08-21T00:50:31;2.97;;;1.80;;
49450;SDS011;35336;48.400;10.886;2022-08-21T00:50:50;1.95;;;1.85;;
49450;SDS011;35336;48.400;10.886;2022-08-21T00:51:14;1.80;;;1.70;;
49450;SDS011;35336;48.400;10.886;2022-08-21T00:51:39;2.10;;;1.90;;
49450;SDS011;35336;48.400;10.886;2022-08-21T00:51:57;2.10;;;1.90;;
49450;SDS011;35336;48.400;10.886;2022-08-21T00:52:19;2.50;;;1.90;;
49450;SDS011;35336;48.400;10.886;2022-08-21T00:52:37;2.35;;;1.98;;
49450;SDS011;35336;48.400;10.886;2022-08-21T00:52:54;2.28;;;1.73;;
49450;SDS011;35336;48.400;10.886;2022-08-21T00:53:11;2.55;;;2.00;;
49450;SDS011;35336;48.400;10.886;2022-08-21T00:53:28;2.92;;;2.13;;
49450;SDS011;35336;48.400;10.886;2022-08-21T00:53:45;3.78;;;2.15;;
49450;SDS011;35336;48.400;10.886;2022-08-21T00:54:01;3.43;;;2.00;;
49450;SDS011;35336;48.400;10.886;2022-08-21T00:54:19;4.30;;;1.88;;
49450;SDS011;35336;48.400;10.886;2022-08-21T00:54:37;3.65;;;1.70;;
49450;SDS011;35336;48.400;10.886;2022-08-21T00:54:58;3.10;;;1.80;;
49450;SDS011;35336;48.400;10.886;2022-08-21T00:55:14;3.17;;;1.80;;
49450;SDS011;35336;48.400;10.886;2022-08-21T00:55:31;3.15;;;2.10;;
49450;SDS011;35336;48.400;10.886;2022-08-21T00:55:48;3.10;;;2.15;;
49450;SDS011;35336;48.400;10.886;2022-08-21T00:56:06;3.10;;;2.08;;
49450;SDS011;35336;48.400;10.886;2022-08-21T00:56:23;3.28;;;2.00;;
49450;SDS011;35336;48.400;10.886;2022-08-21T00:56:39;3.25;;;2.17;;
49450;SDS011;35336;48.400;10.886;2022-08-21T00:56:57;2.40;;;2.10;;
49450;SDS011;35336;48.400;10.886;2022-08-21T00:57:21;2.63;;;2.13;;
49450;SDS011;35336;48.400;10.886;2022-08-21T00:57:44;4.05;;;2.20;;
49450;SDS011;35336;48.400;10.886;2022-08-21T00:58:04;2.58;;;2.10;;
49450;SDS011;35336;48.400;10.886;2022-08-21T00:58:22;2.75;;;2.10;;
49450;SDS011;35336;48.400;10.886;2022-08-21T00:58:39;3.70;;;1.85;;
49450;SDS011;35336;48.400;10.886;2022-08-21T00:58:56;3.70;;;1.98;;
49450;SDS011;35336;48.400;10.886;2022-08-21T00:59:15;6.50;;;2.15;;
49450;SDS011;35336;48.400;10.886;2022-08-21T00:59:33;3.28;;;1.92;;
49450;SDS011;35336;48.400;10.886;2022-08-21T00:59:51;2.70;;;2.20;;
49450;SDS011;35336;48.400;10.886;2022-08-21T01:00:13;6.28;;;2.22;;
49450;SDS011;35336;48.400;10.886;2022-08-21T01:00:37;6.10;;;2.70;;
49450;SDS011;35336;48.400;10.886;2022-08-21T01:00:54;5.32;;;2.28;;
49450;SDS011;35336;48.400;10.886;2022-08-21T01:01:10;4.73;;;2.10;;
49450;SDS011;35336;48.400;10.886;2022-08-21T01:01:26;4.33;;;2.10;;
49450;SDS011;35336;48.400;10.886;2022-08-21T01:01:42;4.05;;;1.98;;
49450;SDS011;35336;48.400;10.886;2022-08-21T01:01:57;2.10;;;1.80;;
49450;SDS011;35336;48.400;10.886;2022-08-21T01:02:13;2.10;;;1.85;;
49450;SDS011;35336;48.400;10.886;2022-08-21T01:02:29;2.17;;;1.87;;
49450;SDS011;35336;48.400;10.886;2022-08-21T01:02:44;2.65;;;1.85;;
49450;SDS011;35336;48.400;10.886;2022-08-21T01:03:02;3.53;;;1.80;;
49450;SDS011;35336;48.400;10.886;2022-08-21T01:03:23;3.97;;;1.83;;
49450;SDS011;35336;48.400;10.886;2022-08-21T01:03:40;4.28;;;1.90;;
49450;SDS011;35336;48.400;10.886;2022-08-21T01:03:55;4.40;;;2.10;;
49450;SDS011;35336;48.400;10.886;2022-08-21T01:04:11;4.00;;;2.00;;
49450;SDS011;35336;48.400;10.886;2022-08-21T01:04:27;3.40;;;2.10;;
49450;SDS011;35336;48.400;10.886;2022-08-21T01:04:42;3.03;;;2.00;;
49450;SDS011;35336;48.400;10.886;2022-08-21T01:04:58;4.72;;;2.10;;
49450;SDS011;35336;48.400;10.886;2022-08-21T01:05:13;3.80;;;2.10;;
49450;SDS011;35336;48.400;10.886;2022-08-21T01:05:29;2.42;;;1.98;;
49450;SDS011;35336;48.400;10.886;2022-08-21T01:05:45;2.33;;;2.13;;
49450;SDS011;35336;48.400;10.886;2022-08-21T01:06:01;2.33;;;2.13;;
49450;SDS011;35336;48.400;10.886;2022-08-21T01:06:19;3.35;;;2.00;;
49450;SDS011;35336;48.400;10.886;2022-08-21T01:06:35;3.47;;;2.00;;
49450;SDS011;35336;48.400;10.886;2022-08-21T01:06:50;2.67;;;2.03;;
49450;SDS011;35336;48.400;10.886;2022-08-21T01:07:06;3.85;;;2.30;;
49450;SDS011;35336;48.400;10.886;2022-08-21T01:07:22;3.78;;;2.28;;
49450;SDS011;35336;48.400;10.886;2022-08-21T01:07:38;2.23;;;2.03;;
49450;SDS011;35336;48.400;10.886;2022-08-21T01:07:54;2.70;;;1.92;;
49450;SDS011;35336;48.400;10.886;2022-08-21T01:08:12;4.45;;;2.00;;
49450;SDS011;35336;48.400;10.886;2022-08-21T01:08:29;4.75;;;2.30;;
49450;SDS011;35336;48.400;10.886;2022-08-21T01:08:45;8.00;;;2.45;;
49450;SDS011;35336;48.400;10.886;2022-08-21T01:09:01;6.72;;;2.22;;
49450;SDS011;35336;48.400;10.886;2022-08-21T01:09:16;4.43;;;2.25;;
49450;SDS011;35336;48.400;10.886;2022-08-21T01:09:33;4.50;;;2.00;;
49450;SDS011;35336;48.400;10.886;2022-08-21T01:09:50;7.03;;;2.00;;
49450;SDS011;35336;48.400;10.886;2022-08-21T01:10:06;4.50;;;2.00;;
49450;SDS011;35336;48.400;10.886;2022-08-21T01:10:23;3.33;;;1.90;;
49450;SDS011;35336;48.400;10.886;2022-08-21T01:10:39;4.22;;;2.10;;
49450;SDS011;35336;48.400;10.886;2022-08-21T01:10:55;3.60;;;2.15;;
49450;SDS011;35336;48.400;10.886;2022-08-21T01:11:11;4.47;;;2.10;;
49450;SDS011;35336;48.400;10.886;2022-08-21T01:11:27;3.25;;;2.17;;
49450;SDS011;35336;48.400;10.886;2022-08-21T01:11:43;2.93;;;2.30;;
49450;SDS011;35336;48.400;10.886;2022-08-21T01:11:59;4.00;;;2.40;;
49450;SDS011;35336;48.400;10.886;2022-08-21T01:12:15;4.70;;;2.15;;
49450;SDS011;35336;48.400;10.886;2022-08-21T01:12:32;2.75;;;1.67;;
49450;SDS011;35336;48.400;10.886;2022-08-21T01:12:49;3.40;;;1.90;;
49450;SDS011;35336;48.400;10.886;2022-08-21T01:13:10;3.97;;;2.03;;
49450;SDS011;35336;48.400;10.886;2022-08-21T01:13:29;3.90;;;2.03;;
49450;SDS011;35336;48.400;10.886;2022-08-21T01:13:46;3.40;;;1.90;;
49450;SDS011;35336;48.400;10.886;2022-08-21T01:14:03;3.50;;;2.10;;
49450;SDS011;35336;48.400;10.886;2022-08-21T01:14:21;4.07;;;2.20;;
49450;SDS011;35336;48.400;10.886;2022-08-21T01:14:37;2.50;;;2.03;;
49450;SDS011;35336;48.400;10.886;2022-08-21T01:14:55;6.82;;;2.30;;
49450;SDS011;35336;48.400;10.886;2022-08-21T01:15:11;7.07;;;2.27;;
49450;SDS011;35336;48.400;10.886;2022-08-21T01:15:32;3.17;;;2.10;;
49450;SDS011;35336;48.400;10.886;2022-08-21T01:15:50;3.45;;;2.20;;
49450;SDS011;35336;48.400;10.886;2022-08-21T01:16:08;3.60;;;2.22;;
49450;SDS011;35336;48.400;10.886;2022-08-21T01:16:24;3.53;;;2.10;;
49450;SDS011;35336;48.400;10.886;2022-08-21T01:16:41;2.88;;;2.17;;
49450;SDS011;35336;48.400;10.886;2022-08-21T01:16:59;2.63;;;1.90;;
49450;SDS011;35336;48.400;10.886;2022-08-21T01:17:18;2.45;;;1.98;;
49450;SDS011;35336;48.400;10.886;2022-08-21T01:17:35;3.78;;;2.05;;
49450;SDS011;35336;48.400;10.886;2022-08-21T01:17:51;3.20;;;1.92;;
49450;SDS011;35336;48.400;10.886;2022-08-21T01:18:09;2.13;;;1.92;;
49450;SDS011;35336;48.400;10.886;2022-08-21T01:18:26;3.42;;;1.90;;
49450;SDS011;35336;48.400;10.886;2022-08-21T01:18:43;3.60;;;1.95;;
49450;SDS011;35336;48.400;10.886;2022-08-21T01:18:59;3.75;;;2.05;;
49450;SDS011;35336;48.400;10.886;2022-08-21T01:19:15;4.63;;;2.00;;
49450;SDS011;35336;48.400;10.886;2022-08-21T01:19:33;4.07;;;2.08;;
49450;SDS011;35336;48.400;10.886;2022-08-21T01:19:49;3.35;;;2.10;;
49450;SDS011;35336;48.400;10.886;2022-08-21T01:20:06;2.30;;;2.10;;
49450;SDS011;35336;48.400;10.886;2022-08-21T01:20:24;4.15;;;2.13;;
49450;SDS011;35336;48.400;10.886;2022-08-21T01:20:42;3.90;;;2.03;;
49450;SDS011;35336;48.400;10.886;2022-08-21T01:21:27;2.55;;;2.00;;
49450;SDS011;35336;48.400;10.886;2022-08-21T01:21:43;2.75;;;2.20;;
49450;SDS011;35336;48.400;10.886;2022-08-21T01:21:58;4.85;;;2.25;;
49450;SDS011;35336;48.400;10.886;2022-08-21T01:22:14;4.93;;;2.30;;
49450;SDS011;35336;48.400;10.886;2022-08-21T01:22:30;5.90;;;2.28;;
49450;SDS011;35336;48.400;10.886;2022-08-21T01:22:45;6.53;;;2.20;;
49450;SDS011;35336;48.400;10.886;2022-08-21T01:23:02;3.53;;;2.30;;
49450;SDS011;35336;48.400;10.886;2022-08-21T01:23:19;3.00;;;2.10;;
49450;SDS011;35336;48.400;10.886;2022-08-21T01:23:36;3.80;;;1.98;;
49450;SDS011;35336;48.400;10.886;2022-08-21T01:23:54;3.40;;;2.03;;
49450;SDS011;35336;48.400;10.886;2022-08-21T01:24:10;2.45;;;2.05;;
49450;SDS011;35336;48.400;10.886;2022-08-21T01:24:26;2.35;;;2.00;;
49450;SDS011;35336;48.400;10.886;2022-08-21T01:24:41;3.10;;;2.00;;
49450;SDS011;35336;48.400;10.886;2022-08-21T01:24:57;4.38;;;2.05;;
49450;SDS011;35336;48.400;10.886;2022-08-21T01:25:17;7.90;;;2.33;;
49450;SDS011;35336;48.400;10.886;2022-08-21T01:25:34;4.95;;;2.40;;
49450;SDS011;35336;48.400;10.886;2022-08-21T01:25:50;4.85;;;2.00;;
49450;SDS011;35336;48.400;10.886;2022-08-21T01:26:06;3.77;;;1.87;;
49450;SDS011;35336;48.400;10.886;2022-08-21T01:26:24;2.30;;;1.90;;
49450;SDS011;35336;48.400;10.886;2022-08-21T01:26:43;3.15;;;1.92;;
49450;SDS011;35336;48.400;10.886;2022-08-21T01:26:59;2.38;;;1.90;;
49450;SDS011;35336;48.400;10.886;2022-08-21T01:27:16;2.50;;;1.80;;
49450;SDS011;35336;48.400;10.886;2022-08-21T01:27:31;2.83;;;2.40;;
49450;SDS011;35336;48.400;10.886;2022-08-21T01:27:47;4.00;;;2.67;;
49450;SDS011;35336;48.400;10.886;2022-08-21T01:28:04;4.00;;;2.08;;
49450;SDS011;35336;48.400;10.886;2022-08-21T01:28:25;3.10;;;2.15;;
49450;SDS011;35336;48.400;10.886;2022-08-21T01:28:49;3.00;;;2.00;;
49450;SDS011;35336;48.400;10.886;2022-08-21T01:29:32;3.08;;;2.00;;
49450;SDS011;35336;48.400;10.886;2022-08-21T01:30:01;2.20;;;2.00;;
49450;SDS011;35336;48.400;10.886;2022-08-21T01:30:29;1.77;;;1.67;;
49450;SDS011;35336;48.400;10.886;2022-08-21T01:30:50;2.05;;;1.70;;
49450;SDS011;35336;48.400;10.886;2022-08-21T01:31:07;2.47;;;1.80;;
49450;SDS011;35336;48.400;10.886;2022-08-21T01:31:26;2.03;;;1.80;;
49450;SDS011;35336;48.400;10.886;2022-08-21T01:31:43;3.15;;;1.83;;
49450;SDS011;35336;48.400;10.886;2022-08-21T01:31:59;3.28;;;1.90;;
49450;SDS011;35336;48.400;10.886;2022-08-21T01:32:20;4.50;;;1.90;;
49450;SDS011;35336;48.400;10.886;2022-08-21T01:32:36;5.20;;;2.13;;
49450;SDS011;35336;48.400;10.886;2022-08-21T01:32:51;3.05;;;1.98;;
49450;SDS011;35336;48.400;10.886;2022-08-21T01:33:09;2.90;;;2.00;;
49450;SDS011;35336;48.400;10.886;2022-08-21T01:33:25;2.60;;;1.90;;
49450;SDS011;35336;48.400;10.886;2022-08-21T01:33:41;2.10;;;1.90;;
49450;SDS011;35336;48.400;10.886;2022-08-21T01:33:56;2.95;;;1.88;;
49450;SDS011;35336;48.400;10.886;2022-08-21T01:34:12;4.18;;;1.95;;
49450;SDS011;35336;48.400;10.886;2022-08-21T01:34:28;3.03;;;1.80;;
49450;SDS011;35336;48.400;10.886;2022-08-21T01:34:45;1.90;;;1.80;;
49450;SDS011;35336;48.400;10.886;2022-08-21T01:35:02;8.65;;;1.85;;
49450;SDS011;35336;48.400;10.886;2022-08-21T01:35:19;9.43;;;1.88;;
49450;SDS011;35336;48.400;10.886;2022-08-21T01:35:34;2.58;;;1.95;;
49450;SDS011;35336;48.400;10.886;2022-08-21T01:35:50;2.53;;;2.00;;
49450;SDS011;35336;48.400;10.886;2022-08-21T01:36:06;3.07;;;2.00;;
49450;SDS011;35336;48.400;10.886;2022-08-21T01:36:22;4.72;;;2.20;;
49450;SDS011;35336;48.400;10.886;2022-08-21T01:36:38;4.38;;;2.00;;
49450;SDS011;35336;48.400;10.886;2022-08-21T01:36:54;4.15;;;1.90;;
49450;SDS011;35336;48.400;10.886;2022-08-21T01:37:09;3.70;;;1.90;;
49450;SDS011;35336;48.400;10.886;2022-08-21T01:37:26;2.58;;;2.00;;
49450;SDS011;35336;48.400;10.886;2022-08-21T01:37:42;4.70;;;1.90;;
49450;SDS011;35336;48.400;10.886;2022-08-21T01:37:58;4.68;;;1.73;;
49450;SDS011;35336;48.400;10.886;2022-08-21T01:38:13;2.80;;;1.83;;
49450;SDS011;35336;48.400;10.886;2022-08-21T01:38:29;3.22;;;2.13;;
49450;SDS011;35336;48.400;10.886;2022-08-21T01:38:45;2.90;;;2.10;;
49450;SDS011;35336;48.400;10.886;2022-08-21T01:39:03;2.40;;;1.92;;
49450;SDS011;35336;48.400;10.886;2022-08-21T01:39:19;3.70;;;2.00;;
49450;SDS011;35336;48.400;10.886;2022-08-21T01:39:35;4.67;;;1.97;;
49450;SDS011;35336;48.400;10.886;2022-08-21T01:39:52;4.80;;;2.10;;
49450;SDS011;35336;48.400;10.886;2022-08-21T01:40:08;3.05;;;1.90;;
49450;SDS011;35336;48.400;10.886;2022-08-21T01:40:25;1.95;;;1.80;;